Portada
METAR-TAF:

METAR-TAF

Aeroports :

Makkovik, Terranova i Labrador, Canadà

latitud: 55-05N, longitud: 059-11W, altitud: 71 m

Observació

L'informe es va fer fa 1 hora i 8 minuts, a les 12:00 UTC
Vent 19 kt del Oest/Sud-Oest
Temperatura -23°C
Humitat 58%
Pressió 1020 hPa
Visibilitat: 24.1 km
Cel clar

METAR: CYFT 181200Z 24019KT 15SM SKC M23/M29 A3013 RMK SLP214

Hora: 09:08 (13:08 UTC)


TAF: manca

Observacions i pronòstics meteorològics de més de 4000 aeroports (METAR i TAF).

Les estacions disponibles són els punts grocs i vermells al mapa.

Posi el ratolí al punt desitjat per veure el nom de l'estació.

Feu clic per veure les observacions i els pronòstics meteorològics.

Per canviar el mapa: feu clic els botons verds amb una creu de color negre per apropar; al botó verd amb un guió per allunyar la imatge; o en les fletxes verdes per a mapes adjacents.


METAR-TAF: